Lasara, TX (78561)

10:31 AM CDT on September 23, 2014 (GMT -0500)
Edinburg | Change Station
CLOSE
Current Station
Airport
Location: Edinburg,
Elevation: 79 ft
Nearby Weather Stations

Elev 79 ft 26.44 °N, 98.13 °W | Updated 16 minutes ago

Mostly Cloudy
Mostly Cloudy
81 °F
Feels Like 86 °F
N
4
Wind Variable Wind from North

Today
High -- | Low -- °F
--% Chance of Precip.
Yesterday
High -- | Low -- °F
Precip. -- in
7:20 AM 7:26 PM
Waning Crescent, 0% visible
Pressure 30.08 in
Visibility 10.0 miles
Clouds Scattered Clouds 2600 ft
Scattered Clouds 3100 ft
Scattered Clouds 4000 ft
Heat Index 86 °F
Dew Point 74 °F
Humidity 78%
Rainfall 0.00 in
Snow Depth Not available.
UV 4 out of 12
Pollen 9.40 out of 12
Ozone Good
PM2.5 Moderate
Flu Activity Not available.
METAR KEBG 231515Z AUTO 01003KT 10SM SCT026 SCT031 SCT040 27/23 A3008 RMK AO2 T02730232

More Conditions Fewer Conditions

Pressure 30.08 in
Visibility 10.0 miles
Clouds Scattered Clouds 2600 ft
Scattered Clouds 3100 ft
Scattered Clouds 4000 ft
Heat Index 86 °F
Dew Point 74 °F
Humidity 78%
Rainfall 0.00 in
Snow Depth Not available.
UV 4 out of 12
Pollen 9.40 out of 12
Ozone Good
PM2.5 Moderate
Flu Activity Not available.
METAR KEBG 231515Z AUTO 01003KT 10SM SCT026 SCT031 SCT040 27/23 A3008 RMK AO2 T02730232

More Conditions Fewer Conditions

Nowcast | as of 9:00 am CDT on September 23, 2014

Through 11 am...isolated showers will move onshore over the Lower Texas coast. Periods of moderate to heavy rainfall can be expected.

×

10-Day Weather Forecast

Almanac

Astronomy

Sep. 23, 2014 Rise Set
Actual Time 7:20 AM CDT 7:26 PM CDT
Civil Twilight 6:57 AM CDT 7:49 PM CDT
Nautical Twilight 6:30 AM CDT 8:16 PM CDT
Astronomical Twilight 6:03 AM CDT 8:43 PM CDT
Moon 6:47 AM CDT 7:08 PM CDT
Length of Visible Light 12h 52m
Length of Day
12h 06m
Tomorrow will be 1m 33s shorter.
Waning Crescent, 0% of the Moon is Illuminated
Today
Waning Crescent
Sep 24
New
Oct 1
First Quarter
Oct 8
Full
Oct 15
Last Quarter

Today's Extremes

State Highs State Lows

Community

WunderPhotos

Upload Photos

1,755,725 photos uploaded!

WunderBlogs® & News

Nearby

Air Quality

  Air Quality AQ Index Pollutant
Yesterday Good
OZONE
Yesterday Good
PM2.5
Current Moderate
PM2.5
Current Good
OZONE
Tuesday Good
PM10
Tuesday Good
OZONE
Wednesday Good
PM10
Wednesday Good
OZONE
Thursday Good
PM10
Thursday Good
OZONE
Friday Good
PM10
Friday Good
OZONE

Snow Depth

Station Depth Elevation
No new snow has been reported.

Earthquake Activity

City Distance Mag. Time & Date
No recent earthquake activity has been reported nearby.
Minimum magnitude displayed is 2.5.

Coastal Water Temperatures

Place Temperature
Port Isabel, TX 82.9 °F
Baffin Bay Point of Rocks, TX 82.0 °F
South Bird Island, TX 82.0 °F
Malaquite Beach (Corpus Christi), TX 82.9 °F
Packery Channel, TX 82.0 °F

Nearby Weather Stations